sensor_id;sensor_type;location;lat;lon;timestamp;P1;durP1;ratioP1;P2;durP2;ratioP2
24547;SDS011;12713;51.624;4.924;2022-12-18T00:01:43;118.15;;;46.72;;
24547;SDS011;12713;51.624;4.924;2022-12-18T00:04:28;129.98;;;48.70;;
24547;SDS011;12713;51.624;4.924;2022-12-18T00:06:54;111.65;;;46.60;;
24547;SDS011;12713;51.624;4.924;2022-12-18T00:09:20;120.65;;;49.47;;
24547;SDS011;12713;51.624;4.924;2022-12-18T00:11:46;128.88;;;50.08;;
24547;SDS011;12713;51.624;4.924;2022-12-18T00:14:12;135.10;;;49.85;;
24547;SDS011;12713;51.624;4.924;2022-12-18T00:16:39;123.28;;;49.40;;
24547;SDS011;12713;51.624;4.924;2022-12-18T00:19:05;124.57;;;48.35;;
24547;SDS011;12713;51.624;4.924;2022-12-18T00:21:32;134.43;;;54.47;;
24547;SDS011;12713;51.624;4.924;2022-12-18T00:23:59;136.27;;;51.58;;
24547;SDS011;12713;51.624;4.924;2022-12-18T00:26:29;145.07;;;51.45;;
24547;SDS011;12713;51.624;4.924;2022-12-18T00:28:59;144.63;;;53.15;;
24547;SDS011;12713;51.624;4.924;2022-12-18T00:31:26;136.80;;;52.95;;
24547;SDS011;12713;51.624;4.924;2022-12-18T00:33:55;145.45;;;53.85;;
24547;SDS011;12713;51.624;4.924;2022-12-18T00:36:26;134.65;;;49.42;;
24547;SDS011;12713;51.624;4.924;2022-12-18T00:38:53;149.90;;;54.15;;
24547;SDS011;12713;51.624;4.924;2022-12-18T00:41:19;140.75;;;52.05;;
24547;SDS011;12713;51.624;4.924;2022-12-18T00:44:05;129.00;;;49.47;;
24547;SDS011;12713;51.624;4.924;2022-12-18T00:46:35;140.57;;;51.78;;
24547;SDS011;12713;51.624;4.924;2022-12-18T00:49:01;133.70;;;52.83;;
24547;SDS011;12713;51.624;4.924;2022-12-18T00:51:27;146.70;;;53.80;;
24547;SDS011;12713;51.624;4.924;2022-12-18T00:53:53;133.07;;;50.78;;
24547;SDS011;12713;51.624;4.924;2022-12-18T00:56:22;118.22;;;48.08;;
24547;SDS011;12713;51.624;4.924;2022-12-18T00:58:48;129.85;;;52.00;;
24547;SDS011;12713;51.624;4.924;2022-12-18T01:01:15;133.60;;;50.88;;
24547;SDS011;12713;51.624;4.924;2022-12-18T01:03:41;118.90;;;51.03;;
24547;SDS011;12713;51.624;4.924;2022-12-18T01:06:08;127.18;;;48.53;;
24547;SDS011;12713;51.624;4.924;2022-12-18T01:08:34;124.65;;;50.28;;
24547;SDS011;12713;51.624;4.924;2022-12-18T01:11:00;119.45;;;48.40;;
24547;SDS011;12713;51.624;4.924;2022-12-18T01:13:27;109.93;;;44.90;;
24547;SDS011;12713;51.624;4.924;2022-12-18T01:15:53;112.25;;;46.13;;
24547;SDS011;12713;51.624;4.924;2022-12-18T01:18:19;103.15;;;44.33;;
24547;SDS011;12713;51.624;4.924;2022-12-18T01:20:45;111.22;;;48.25;;
24547;SDS011;12713;51.624;4.924;2022-12-18T01:23:11;111.30;;;46.53;;
24547;SDS011;12713;51.624;4.924;2022-12-18T01:25:38;106.50;;;44.35;;
24547;SDS011;12713;51.624;4.924;2022-12-18T01:28:04;98.05;;;42.58;;
24547;SDS011;12713;51.624;4.924;2022-12-18T01:30:30;102.38;;;42.53;;
24547;SDS011;12713;51.624;4.924;2022-12-18T01:32:56;95.93;;;42.05;;
24547;SDS011;12713;51.624;4.924;2022-12-18T01:35:22;103.20;;;45.17;;
24547;SDS011;12713;51.624;4.924;2022-12-18T01:37:48;94.85;;;42.97;;
24547;SDS011;12713;51.624;4.924;2022-12-18T01:40:14;94.40;;;39.95;;
24547;SDS011;12713;51.624;4.924;2022-12-18T01:42:40;103.78;;;42.33;;
24547;SDS011;12713;51.624;4.924;2022-12-18T01:50:22;87.97;;;38.17;;
24547;SDS011;12713;51.624;4.924;2022-12-18T01:52:56;91.43;;;38.95;;
24547;SDS011;12713;51.624;4.924;2022-12-18T01:55:25;91.93;;;39.85;;
24547;SDS011;12713;51.624;4.924;2022-12-18T01:57:52;82.40;;;39.08;;
24547;SDS011;12713;51.624;4.924;2022-12-18T02:00:19;84.43;;;38.20;;
24547;SDS011;12713;51.624;4.924;2022-12-18T02:02:46;85.15;;;37.15;;
24547;SDS011;12713;51.624;4.924;2022-12-18T02:05:13;82.85;;;37.53;;
24547;SDS011;12713;51.624;4.924;2022-12-18T02:15:26;79.97;;;36.08;;
24547;SDS011;12713;51.624;4.924;2022-12-18T02:17:55;73.30;;;35.70;;
24547;SDS011;12713;51.624;4.924;2022-12-18T02:20:43;75.82;;;35.50;;
24547;SDS011;12713;51.624;4.924;2022-12-18T02:28:17;76.97;;;35.17;;
24547;SDS011;12713;51.624;4.924;2022-12-18T02:30:46;70.28;;;34.72;;
24547;SDS011;12713;51.624;4.924;2022-12-18T02:33:13;75.05;;;36.03;;
24547;SDS011;12713;51.624;4.924;2022-12-18T02:35:40;71.15;;;33.70;;
24547;SDS011;12713;51.624;4.924;2022-12-18T02:38:06;63.35;;;33.13;;
24547;SDS011;12713;51.624;4.924;2022-12-18T02:40:32;66.90;;;32.13;;
24547;SDS011;12713;51.624;4.924;2022-12-18T02:43:02;69.63;;;33.03;;
24547;SDS011;12713;51.624;4.924;2022-12-18T02:45:28;68.43;;;32.50;;
24547;SDS011;12713;51.624;4.924;2022-12-18T02:47:54;70.53;;;33.88;;
24547;SDS011;12713;51.624;4.924;2022-12-18T02:50:37;63.03;;;32.58;;
24547;SDS011;12713;51.624;4.924;2022-12-18T02:53:06;65.78;;;32.35;;
24547;SDS011;12713;51.624;4.924;2022-12-18T02:58:20;69.63;;;33.10;;
24547;SDS011;12713;51.624;4.924;2022-12-18T03:03:42;67.57;;;32.00;;
24547;SDS011;12713;51.624;4.924;2022-12-18T03:06:12;69.40;;;32.63;;
24547;SDS011;12713;51.624;4.924;2022-12-18T03:08:43;65.10;;;31.83;;
24547;SDS011;12713;51.624;4.924;2022-12-18T03:11:11;66.05;;;32.75;;
24547;SDS011;12713;51.624;4.924;2022-12-18T03:13:39;64.78;;;32.35;;
24547;SDS011;12713;51.624;4.924;2022-12-18T03:16:08;63.55;;;32.15;;
24547;SDS011;12713;51.624;4.924;2022-12-18T03:18:37;64.03;;;31.80;;
24547;SDS011;12713;51.624;4.924;2022-12-18T03:21:05;65.22;;;32.20;;
24547;SDS011;12713;51.624;4.924;2022-12-18T03:23:35;61.63;;;30.58;;
24547;SDS011;12713;51.624;4.924;2022-12-18T03:26:04;61.97;;;31.92;;
24547;SDS011;12713;51.624;4.924;2022-12-18T03:28:31;61.40;;;29.58;;
24547;SDS011;12713;51.624;4.924;2022-12-18T03:30:58;63.53;;;31.38;;
24547;SDS011;12713;51.624;4.924;2022-12-18T03:33:27;63.03;;;31.42;;
24547;SDS011;12713;51.624;4.924;2022-12-18T03:35:54;65.05;;;32.50;;
24547;SDS011;12713;51.624;4.924;2022-12-18T03:38:20;60.17;;;30.85;;
24547;SDS011;12713;51.624;4.924;2022-12-18T03:43:35;62.53;;;32.05;;
24547;SDS011;12713;51.624;4.924;2022-12-18T03:46:08;64.40;;;32.20;;
24547;SDS011;12713;51.624;4.924;2022-12-18T03:48:41;61.30;;;29.93;;
24547;SDS011;12713;51.624;4.924;2022-12-18T03:51:15;60.05;;;30.83;;
24547;SDS011;12713;51.624;4.924;2022-12-18T03:53:45;61.58;;;30.83;;
24547;SDS011;12713;51.624;4.924;2022-12-18T03:56:13;62.38;;;29.55;;
24547;SDS011;12713;51.624;4.924;2022-12-18T03:58:41;56.38;;;29.45;;
24547;SDS011;12713;51.624;4.924;2022-12-18T04:01:07;56.90;;;29.17;;
24547;SDS011;12713;51.624;4.924;2022-12-18T04:03:35;56.13;;;29.67;;
24547;SDS011;12713;51.624;4.924;2022-12-18T04:06:02;58.20;;;30.20;;
24547;SDS011;12713;51.624;4.924;2022-12-18T04:08:28;52.35;;;29.35;;
24547;SDS011;12713;51.624;4.924;2022-12-18T04:10:54;68.28;;;28.92;;
24547;SDS011;12713;51.624;4.924;2022-12-18T04:13:21;51.22;;;26.98;;
24547;SDS011;12713;51.624;4.924;2022-12-18T04:15:48;55.08;;;29.25;;
24547;SDS011;12713;51.624;4.924;2022-12-18T04:18:14;53.05;;;28.48;;
24547;SDS011;12713;51.624;4.924;2022-12-18T04:20:40;58.45;;;28.80;;
24547;SDS011;12713;51.624;4.924;2022-12-18T04:23:06;54.05;;;28.40;;
24547;SDS011;12713;51.624;4.924;2022-12-18T04:25:32;51.33;;;26.38;;
24547;SDS011;12713;51.624;4.924;2022-12-18T04:27:57;51.58;;;27.27;;
24547;SDS011;12713;51.624;4.924;2022-12-18T04:30:23;51.90;;;27.20;;
24547;SDS011;12713;51.624;4.924;2022-12-18T04:32:49;47.05;;;26.17;;
24547;SDS011;12713;51.624;4.924;2022-12-18T04:35:16;52.00;;;26.77;;
24547;SDS011;12713;51.624;4.924;2022-12-18T04:37:42;50.50;;;26.13;;
24547;SDS011;12713;51.624;4.924;2022-12-18T04:40:08;48.80;;;26.98;;
24547;SDS011;12713;51.624;4.924;2022-12-18T04:42:34;48.10;;;26.02;;
24547;SDS011;12713;51.624;4.924;2022-12-18T04:45:00;47.55;;;27.13;;
24547;SDS011;12713;51.624;4.924;2022-12-18T04:47:26;53.85;;;27.30;;
24547;SDS011;12713;51.624;4.924;2022-12-18T04:49:52;46.90;;;25.65;;
24547;SDS011;12713;51.624;4.924;2022-12-18T04:52:18;49.13;;;25.33;;
24547;SDS011;12713;51.624;4.924;2022-12-18T04:54:44;49.63;;;25.95;;
24547;SDS011;12713;51.624;4.924;2022-12-18T04:57:10;49.97;;;26.60;;
24547;SDS011;12713;51.624;4.924;2022-12-18T04:59:36;50.17;;;25.35;;
24547;SDS011;12713;51.624;4.924;2022-12-18T05:02:02;48.28;;;26.60;;
24547;SDS011;12713;51.624;4.924;2022-12-18T05:04:28;48.67;;;25.42;;
24547;SDS011;12713;51.624;4.924;2022-12-18T05:06:54;47.95;;;24.90;;
24547;SDS011;12713;51.624;4.924;2022-12-18T05:09:20;45.30;;;24.88;;
24547;SDS011;12713;51.624;4.924;2022-12-18T05:11:46;46.00;;;23.83;;
24547;SDS011;12713;51.624;4.924;2022-12-18T05:14:12;44.40;;;24.70;;
24547;SDS011;12713;51.624;4.924;2022-12-18T05:16:38;45.08;;;24.90;;
24547;SDS011;12713;51.624;4.924;2022-12-18T05:19:04;41.95;;;23.65;;
24547;SDS011;12713;51.624;4.924;2022-12-18T05:21:30;48.83;;;25.92;;
24547;SDS011;12713;51.624;4.924;2022-12-18T05:23:56;41.22;;;22.77;;
24547;SDS011;12713;51.624;4.924;2022-12-18T05:26:22;42.05;;;24.25;;
24547;SDS011;12713;51.624;4.924;2022-12-18T05:28:48;41.80;;;23.88;;
24547;SDS011;12713;51.624;4.924;2022-12-18T05:31:14;40.70;;;22.80;;
24547;SDS011;12713;51.624;4.924;2022-12-18T05:33:40;40.35;;;22.77;;
24547;SDS011;12713;51.624;4.924;2022-12-18T05:36:07;42.50;;;24.58;;
24547;SDS011;12713;51.624;4.924;2022-12-18T05:38:34;45.60;;;24.13;;
24547;SDS011;12713;51.624;4.924;2022-12-18T05:41:02;40.00;;;22.27;;
24547;SDS011;12713;51.624;4.924;2022-12-18T05:43:28;42.22;;;22.90;;
24547;SDS011;12713;51.624;4.924;2022-12-18T05:45:54;41.35;;;22.77;;
24547;SDS011;12713;51.624;4.924;2022-12-18T05:48:21;41.88;;;23.42;;
24547;SDS011;12713;51.624;4.924;2022-12-18T05:50:48;39.33;;;23.42;;
24547;SDS011;12713;51.624;4.924;2022-12-18T05:53:15;42.40;;;23.42;;
24547;SDS011;12713;51.624;4.924;2022-12-18T05:55:41;39.05;;;21.52;;
24547;SDS011;12713;51.624;4.924;2022-12-18T05:58:08;41.97;;;23.08;;
24547;SDS011;12713;51.624;4.924;2022-12-18T06:00:35;42.55;;;22.48;;
24547;SDS011;12713;51.624;4.924;2022-12-18T06:03:05;42.05;;;22.50;;
24547;SDS011;12713;51.624;4.924;2022-12-18T06:05:34;44.53;;;23.38;;
24547;SDS011;12713;51.624;4.924;2022-12-18T06:08:01;40.47;;;22.75;;
24547;SDS011;12713;51.624;4.924;2022-12-18T06:10:27;40.53;;;21.58;;
24547;SDS011;12713;51.624;4.924;2022-12-18T06:12:53;40.47;;;21.92;;
24547;SDS011;12713;51.624;4.924;2022-12-18T06:15:19;37.95;;;22.05;;
24547;SDS011;12713;51.624;4.924;2022-12-18T06:17:45;33.53;;;22.27;;
24547;SDS011;12713;51.624;4.924;2022-12-18T06:20:11;38.20;;;21.65;;
24547;SDS011;12713;51.624;4.924;2022-12-18T06:22:37;38.72;;;22.23;;
24547;SDS011;12713;51.624;4.924;2022-12-18T06:25:03;41.40;;;22.02;;
24547;SDS011;12713;51.624;4.924;2022-12-18T06:27:30;37.40;;;21.45;;
24547;SDS011;12713;51.624;4.924;2022-12-18T06:29:58;37.25;;;20.65;;
24547;SDS011;12713;51.624;4.924;2022-12-18T06:32:24;35.22;;;21.55;;
24547;SDS011;12713;51.624;4.924;2022-12-18T06:34:50;36.03;;;20.90;;
24547;SDS011;12713;51.624;4.924;2022-12-18T06:37:16;39.85;;;20.77;;
24547;SDS011;12713;51.624;4.924;2022-12-18T06:39:42;35.47;;;20.50;;
24547;SDS011;12713;51.624;4.924;2022-12-18T06:42:08;37.20;;;20.58;;
24547;SDS011;12713;51.624;4.924;2022-12-18T06:44:34;35.78;;;20.70;;
24547;SDS011;12713;51.624;4.924;2022-12-18T06:47:00;34.55;;;20.55;;
24547;SDS011;12713;51.624;4.924;2022-12-18T06:49:26;37.53;;;20.05;;
24547;SDS011;12713;51.624;4.924;2022-12-18T06:51:52;33.25;;;19.20;;
24547;SDS011;12713;51.624;4.924;2022-12-18T06:54:18;32.92;;;19.30;;
24547;SDS011;12713;51.624;4.924;2022-12-18T06:56:45;34.30;;;18.95;;
24547;SDS011;12713;51.624;4.924;2022-12-18T06:59:12;33.63;;;20.00;;
24547;SDS011;12713;51.624;4.924;2022-12-18T07:01:38;38.67;;;20.13;;
24547;SDS011;12713;51.624;4.924;2022-12-18T07:04:04;35.97;;;20.27;;
24547;SDS011;12713;51.624;4.924;2022-12-18T07:06:30;32.15;;;20.33;;
24547;SDS011;12713;51.624;4.924;2022-12-18T07:08:56;34.30;;;20.88;;
24547;SDS011;12713;51.624;4.924;2022-12-18T07:11:22;37.22;;;21.02;;
24547;SDS011;12713;51.624;4.924;2022-12-18T07:13:49;35.08;;;20.13;;
24547;SDS011;12713;51.624;4.924;2022-12-18T07:16:16;35.35;;;20.65;;
24547;SDS011;12713;51.624;4.924;2022-12-18T07:18:42;38.03;;;21.85;;
24547;SDS011;12713;51.624;4.924;2022-12-18T07:21:09;38.13;;;20.90;;
24547;SDS011;12713;51.624;4.924;2022-12-18T07:23:36;36.85;;;20.95;;
24547;SDS011;12713;51.624;4.924;2022-12-18T07:26:03;34.50;;;20.60;;
24547;SDS011;12713;51.624;4.924;2022-12-18T07:28:29;35.38;;;20.77;;
24547;SDS011;12713;51.624;4.924;2022-12-18T07:30:55;36.22;;;20.90;;
24547;SDS011;12713;51.624;4.924;2022-12-18T07:33:21;35.70;;;20.83;;
24547;SDS011;12713;51.624;4.924;2022-12-18T07:35:48;37.08;;;21.52;;
24547;SDS011;12713;51.624;4.924;2022-12-18T07:38:14;43.53;;;23.10;;
24547;SDS011;12713;51.624;4.924;2022-12-18T07:40:40;38.35;;;22.00;;
24547;SDS011;12713;51.624;4.924;2022-12-18T07:43:05;35.00;;;21.42;;
24547;SDS011;12713;51.624;4.924;2022-12-18T07:45:31;38.58;;;22.67;;
24547;SDS011;12713;51.624;4.924;2022-12-18T07:47:57;40.40;;;21.33;;
24547;SDS011;12713;51.624;4.924;2022-12-18T07:50:23;37.97;;;21.33;;
24547;SDS011;12713;51.624;4.924;2022-12-18T07:52:49;38.25;;;22.17;;
24547;SDS011;12713;51.624;4.924;2022-12-18T07:55:16;41.30;;;22.48;;
24547;SDS011;12713;51.624;4.924;2022-12-18T07:57:41;37.20;;;21.05;;
24547;SDS011;12713;51.624;4.924;2022-12-18T08:00:08;37.17;;;20.75;;
24547;SDS011;12713;51.624;4.924;2022-12-18T08:02:34;35.25;;;20.55;;
24547;SDS011;12713;51.624;4.924;2022-12-18T08:05:00;35.78;;;20.52;;
24547;SDS011;12713;51.624;4.924;2022-12-18T08:07:26;33.05;;;20.00;;
24547;SDS011;12713;51.624;4.924;2022-12-18T08:09:52;40.75;;;22.30;;
24547;SDS011;12713;51.624;4.924;2022-12-18T08:12:18;34.72;;;19.67;;
24547;SDS011;12713;51.624;4.924;2022-12-18T08:14:44;36.38;;;20.20;;
24547;SDS011;12713;51.624;4.924;2022-12-18T08:17:10;36.13;;;20.95;;
24547;SDS011;12713;51.624;4.924;2022-12-18T08:19:38;41.05;;;20.65;;
24547;SDS011;12713;51.624;4.924;2022-12-18T08:22:04;34.45;;;19.95;;
24547;SDS011;12713;51.624;4.924;2022-12-18T08:24:30;37.80;;;22.33;;
24547;SDS011;12713;51.624;4.924;2022-12-18T08:26:56;33.50;;;20.42;;
24547;SDS011;12713;51.624;4.924;2022-12-18T08:29:23;34.72;;;19.58;;
24547;SDS011;12713;51.624;4.924;2022-12-18T08:31:49;38.80;;;22.85;;
24547;SDS011;12713;51.624;4.924;2022-12-18T08:34:15;38.95;;;22.23;;
24547;SDS011;12713;51.624;4.924;2022-12-18T08:36:41;40.53;;;26.27;;
24547;SDS011;12713;51.624;4.924;2022-12-18T08:39:07;40.78;;;22.40;;
24547;SDS011;12713;51.624;4.924;2022-12-18T08:41:33;42.28;;;26.63;;
24547;SDS011;12713;51.624;4.924;2022-12-18T08:43:59;38.42;;;23.77;;
24547;SDS011;12713;51.624;4.924;2022-12-18T08:46:43;52.85;;;31.33;;
24547;SDS011;12713;51.624;4.924;2022-12-18T08:49:10;36.47;;;24.23;;
24547;SDS011;12713;51.624;4.924;2022-12-18T08:51:36;41.70;;;25.85;;
24547;SDS011;12713;51.624;4.924;2022-12-18T08:54:03;33.90;;;23.75;;
24547;SDS011;12713;51.624;4.924;2022-12-18T08:56:29;41.67;;;27.98;;
24547;SDS011;12713;51.624;4.924;2022-12-18T08:58:55;36.13;;;22.50;;
24547;SDS011;12713;51.624;4.924;2022-12-18T09:01:22;34.65;;;20.13;;
24547;SDS011;12713;51.624;4.924;2022-12-18T09:03:49;38.30;;;21.88;;
24547;SDS011;12713;51.624;4.924;2022-12-18T09:06:16;31.45;;;20.35;;
24547;SDS011;12713;51.624;4.924;2022-12-18T09:08:46;36.30;;;21.17;;
24547;SDS011;12713;51.624;4.924;2022-12-18T09:11:13;34.53;;;19.95;;
24547;SDS011;12713;51.624;4.924;2022-12-18T09:13:39;34.92;;;20.38;;
24547;SDS011;12713;51.624;4.924;2022-12-18T09:16:05;33.83;;;20.27;;
24547;SDS011;12713;51.624;4.924;2022-12-18T09:18:31;33.08;;;21.27;;
24547;SDS011;12713;51.624;4.924;2022-12-18T09:20:57;30.73;;;19.75;;
24547;SDS011;12713;51.624;4.924;2022-12-18T09:23:23;39.00;;;21.67;;
24547;SDS011;12713;51.624;4.924;2022-12-18T09:25:49;41.95;;;23.50;;
24547;SDS011;12713;51.624;4.924;2022-12-18T09:28:16;31.08;;;19.75;;
24547;SDS011;12713;51.624;4.924;2022-12-18T09:30:47;32.17;;;20.38;;
24547;SDS011;12713;51.624;4.924;2022-12-18T09:33:13;30.33;;;18.90;;
24547;SDS011;12713;51.624;4.924;2022-12-18T09:35:40;31.20;;;20.58;;
24547;SDS011;12713;51.624;4.924;2022-12-18T09:38:07;35.47;;;21.35;;
24547;SDS011;12713;51.624;4.924;2022-12-18T09:40:44;34.25;;;19.75;;
24547;SDS011;12713;51.624;4.924;2022-12-18T09:43:14;33.47;;;19.90;;
24547;SDS011;12713;51.624;4.924;2022-12-18T09:45:41;32.85;;;19.75;;
24547;SDS011;12713;51.624;4.924;2022-12-18T09:48:31;37.20;;;20.35;;
24547;SDS011;12713;51.624;4.924;2022-12-18T09:50:55;33.88;;;20.02;;
24547;SDS011;12713;51.624;4.924;2022-12-18T09:53:24;36.67;;;22.58;;
24547;SDS011;12713;51.624;4.924;2022-12-18T09:55:52;36.25;;;21.85;;
24547;SDS011;12713;51.624;4.924;2022-12-18T10:00:54;33.75;;;20.38;;
24547;SDS011;12713;51.624;4.924;2022-12-18T10:03:20;32.22;;;20.35;;
24547;SDS011;12713;51.624;4.924;2022-12-18T10:05:54;31.73;;;18.73;;
24547;SDS011;12713;51.624;4.924;2022-12-18T10:10:52;32.10;;;21.08;;
24547;SDS011;12713;51.624;4.924;2022-12-18T10:13:39;32.83;;;20.60;;
24547;SDS011;12713;51.624;4.924;2022-12-18T10:16:17;29.75;;;18.55;;
24547;SDS011;12713;51.624;4.924;2022-12-18T10:24:19;30.88;;;20.42;;
24547;SDS011;12713;51.624;4.924;2022-12-18T10:26:47;30.45;;;18.58;;
24547;SDS011;12713;51.624;4.924;2022-12-18T10:29:13;32.40;;;18.75;;
24547;SDS011;12713;51.624;4.924;2022-12-18T10:31:40;32.55;;;19.48;;
24547;SDS011;12713;51.624;4.924;2022-12-18T10:34:12;32.40;;;19.88;;
24547;SDS011;12713;51.624;4.924;2022-12-18T10:36:42;33.75;;;21.15;;
24547;SDS011;12713;51.624;4.924;2022-12-18T10:39:14;29.90;;;19.45;;
24547;SDS011;12713;51.624;4.924;2022-12-18T10:41:40;36.13;;;21.40;;
24547;SDS011;12713;51.624;4.924;2022-12-18T10:44:22;30.48;;;19.58;;
24547;SDS011;12713;51.624;4.924;2022-12-18T10:46:53;33.95;;;20.27;;
24547;SDS011;12713;51.624;4.924;2022-12-18T10:49:33;34.30;;;20.55;;
24547;SDS011;12713;51.624;4.924;2022-12-18T10:52:29;27.30;;;17.90;;
24547;SDS011;12713;51.624;4.924;2022-12-18T10:55:15;28.58;;;19.80;;
24547;SDS011;12713;51.624;4.924;2022-12-18T10:57:45;32.50;;;20.08;;
24547;SDS011;12713;51.624;4.924;2022-12-18T11:02:53;29.38;;;19.40;;
24547;SDS011;12713;51.624;4.924;2022-12-18T11:05:32;33.05;;;20.73;;
24547;SDS011;12713;51.624;4.924;2022-12-18T11:11:21;31.85;;;19.85;;
24547;SDS011;12713;51.624;4.924;2022-12-18T11:13:50;36.00;;;22.40;;
24547;SDS011;12713;51.624;4.924;2022-12-18T11:16:34;30.52;;;19.30;;
24547;SDS011;12713;51.624;4.924;2022-12-18T11:31:39;32.22;;;20.60;;
24547;SDS011;12713;51.624;4.924;2022-12-18T11:34:37;39.72;;;24.13;;
24547;SDS011;12713;51.624;4.924;2022-12-18T11:40:11;39.05;;;24.38;;
24547;SDS011;12713;51.624;4.924;2022-12-18T11:42:41;34.33;;;21.23;;
24547;SDS011;12713;51.624;4.924;2022-12-18T11:50:10;34.45;;;21.00;;
24547;SDS011;12713;51.624;4.924;2022-12-18T11:52:40;34.17;;;21.50;;
24547;SDS011;12713;51.624;4.924;2022-12-18T11:55:11;31.90;;;21.70;;
24547;SDS011;12713;51.624;4.924;2022-12-18T12:00:22;39.25;;;24.60;;
24547;SDS011;12713;51.624;4.924;2022-12-18T12:21:21;33.10;;;20.08;;
24547;SDS011;12713;51.624;4.924;2022-12-18T12:26:45;35.10;;;21.80;;
24547;SDS011;12713;51.624;4.924;2022-12-18T12:29:40;37.03;;;22.95;;
24547;SDS011;12713;51.624;4.924;2022-12-18T12:32:21;33.58;;;23.00;;
24547;SDS011;12713;51.624;4.924;2022-12-18T12:34:55;34.58;;;22.02;;
24547;SDS011;12713;51.624;4.924;2022-12-18T12:39:54;38.60;;;23.00;;
24547;SDS011;12713;51.624;4.924;2022-12-18T12:42:26;39.10;;;23.50;;
24547;SDS011;12713;51.624;4.924;2022-12-18T12:45:22;38.90;;;23.90;;
24547;SDS011;12713;51.624;4.924;2022-12-18T12:47:49;36.45;;;22.38;;
24547;SDS011;12713;51.624;4.924;2022-12-18T12:50:17;34.63;;;21.35;;
24547;SDS011;12713;51.624;4.924;2022-12-18T12:52:45;44.30;;;24.20;;
24547;SDS011;12713;51.624;4.924;2022-12-18T12:55:17;34.63;;;20.10;;
24547;SDS011;12713;51.624;4.924;2022-12-18T13:00:39;54.25;;;36.10;;
24547;SDS011;12713;51.624;4.924;2022-12-18T13:03:19;50.80;;;30.67;;
24547;SDS011;12713;51.624;4.924;2022-12-18T13:05:57;33.97;;;22.58;;
24547;SDS011;12713;51.624;4.924;2022-12-18T13:08:51;42.92;;;25.38;;
24547;SDS011;12713;51.624;4.924;2022-12-18T13:22:54;37.25;;;22.15;;
24547;SDS011;12713;51.624;4.924;2022-12-18T13:25:27;34.67;;;21.73;;
24547;SDS011;12713;51.624;4.924;2022-12-18T13:38:33;36.33;;;25.45;;
24547;SDS011;12713;51.624;4.924;2022-12-18T13:41:24;41.90;;;27.42;;
24547;SDS011;12713;51.624;4.924;2022-12-18T14:16:01;42.80;;;30.08;;
24547;SDS011;12713;51.624;4.924;2022-12-18T14:21:50;43.60;;;25.55;;
24547;SDS011;12713;51.624;4.924;2022-12-18T14:24:17;34.78;;;21.50;;
24547;SDS011;12713;51.624;4.924;2022-12-18T14:26:44;39.88;;;24.25;;
24547;SDS011;12713;51.624;4.924;2022-12-18T14:29:26;41.28;;;25.58;;
24547;SDS011;12713;51.624;4.924;2022-12-18T14:35:12;38.30;;;24.65;;
24547;SDS011;12713;51.624;4.924;2022-12-18T14:37:47;32.38;;;20.35;;
24547;SDS011;12713;51.624;4.924;2022-12-18T14:40:13;34.72;;;22.65;;
24547;SDS011;12713;51.624;4.924;2022-12-18T14:42:40;37.47;;;22.00;;
24547;SDS011;12713;51.624;4.924;2022-12-18T14:47:57;35.92;;;21.92;;
24547;SDS011;12713;51.624;4.924;2022-12-18T14:50:28;34.30;;;21.40;;
24547;SDS011;12713;51.624;4.924;2022-12-18T14:53:22;32.40;;;20.55;;
24547;SDS011;12713;51.624;4.924;2022-12-18T14:55:49;34.47;;;21.27;;
24547;SDS011;12713;51.624;4.924;2022-12-18T14:58:15;36.15;;;20.73;;
24547;SDS011;12713;51.624;4.924;2022-12-18T15:00:45;37.42;;;20.83;;
24547;SDS011;12713;51.624;4.924;2022-12-18T15:03:34;34.35;;;20.33;;
24547;SDS011;12713;51.624;4.924;2022-12-18T15:06:17;34.80;;;19.63;;
24547;SDS011;12713;51.624;4.924;2022-12-18T15:08:49;35.08;;;20.52;;
24547;SDS011;12713;51.624;4.924;2022-12-18T15:11:25;35.72;;;20.17;;
24547;SDS011;12713;51.624;4.924;2022-12-18T15:17:06;29.35;;;18.35;;
24547;SDS011;12713;51.624;4.924;2022-12-18T15:19:40;34.35;;;19.58;;
24547;SDS011;12713;51.624;4.924;2022-12-18T15:22:20;31.05;;;19.52;;
24547;SDS011;12713;51.624;4.924;2022-12-18T15:24:46;35.72;;;20.38;;
24547;SDS011;12713;51.624;4.924;2022-12-18T15:27:26;39.67;;;21.60;;
24547;SDS011;12713;51.624;4.924;2022-12-18T15:32:37;36.22;;;22.05;;
24547;SDS011;12713;51.624;4.924;2022-12-18T15:37:40;39.20;;;21.93;;
24547;SDS011;12713;51.624;4.924;2022-12-18T15:40:07;36.47;;;19.95;;
24547;SDS011;12713;51.624;4.924;2022-12-18T15:42:34;32.45;;;18.70;;
24547;SDS011;12713;51.624;4.924;2022-12-18T15:45:18;34.95;;;19.88;;
24547;SDS011;12713;51.624;4.924;2022-12-18T15:47:44;31.55;;;19.35;;
24547;SDS011;12713;51.624;4.924;2022-12-18T15:50:10;30.02;;;20.17;;
24547;SDS011;12713;51.624;4.924;2022-12-18T15:52:39;35.00;;;20.40;;
24547;SDS011;12713;51.624;4.924;2022-12-18T15:55:09;35.42;;;20.42;;
24547;SDS011;12713;51.624;4.924;2022-12-18T15:57:54;31.65;;;18.90;;
24547;SDS011;12713;51.624;4.924;2022-12-18T16:00:20;33.88;;;19.85;;
24547;SDS011;12713;51.624;4.924;2022-12-18T16:02:47;33.08;;;18.70;;
24547;SDS011;12713;51.624;4.924;2022-12-18T16:05:13;35.38;;;21.20;;
24547;SDS011;12713;51.624;4.924;2022-12-18T16:07:41;40.75;;;20.85;;
24547;SDS011;12713;51.624;4.924;2022-12-18T16:10:08;37.67;;;21.08;;
24547;SDS011;12713;51.624;4.924;2022-12-18T16:12:34;36.08;;;20.23;;
24547;SDS011;12713;51.624;4.924;2022-12-18T16:15:00;33.67;;;19.75;;
24547;SDS011;12713;51.624;4.924;2022-12-18T16:17:26;38.60;;;19.40;;
24547;SDS011;12713;51.624;4.924;2022-12-18T16:19:52;43.40;;;20.48;;
24547;SDS011;12713;51.624;4.924;2022-12-18T16:22:22;32.42;;;19.63;;
24547;SDS011;12713;51.624;4.924;2022-12-18T16:24:49;32.78;;;19.42;;
24547;SDS011;12713;51.624;4.924;2022-12-18T16:27:15;33.65;;;20.65;;
24547;SDS011;12713;51.624;4.924;2022-12-18T16:29:41;34.88;;;19.63;;
24547;SDS011;12713;51.624;4.924;2022-12-18T16:32:14;32.35;;;19.52;;
24547;SDS011;12713;51.624;4.924;2022-12-18T16:34:41;32.67;;;18.73;;
24547;SDS011;12713;51.624;4.924;2022-12-18T16:37:07;35.13;;;19.77;;
24547;SDS011;12713;51.624;4.924;2022-12-18T16:39:34;37.88;;;20.65;;
24547;SDS011;12713;51.624;4.924;2022-12-18T16:42:01;35.92;;;20.55;;
24547;SDS011;12713;51.624;4.924;2022-12-18T16:44:27;35.72;;;20.20;;
24547;SDS011;12713;51.624;4.924;2022-12-18T16:46:53;31.15;;;19.48;;
24547;SDS011;12713;51.624;4.924;2022-12-18T16:49:20;37.15;;;20.35;;
24547;SDS011;12713;51.624;4.924;2022-12-18T16:51:47;41.05;;;22.88;;
24547;SDS011;12713;51.624;4.924;2022-12-18T16:54:13;35.55;;;21.77;;
24547;SDS011;12713;51.624;4.924;2022-12-18T16:56:39;36.17;;;21.25;;
24547;SDS011;12713;51.624;4.924;2022-12-18T16:59:06;37.22;;;22.25;;
24547;SDS011;12713;51.624;4.924;2022-12-18T17:01:34;33.72;;;18.83;;
24547;SDS011;12713;51.624;4.924;2022-12-18T17:04:03;37.08;;;22.20;;
24547;SDS011;12713;51.624;4.924;2022-12-18T17:06:39;31.58;;;19.60;;
24547;SDS011;12713;51.624;4.924;2022-12-18T17:09:06;36.55;;;21.38;;
24547;SDS011;12713;51.624;4.924;2022-12-18T17:11:33;38.13;;;20.42;;
24547;SDS011;12713;51.624;4.924;2022-12-18T17:14:04;36.70;;;21.85;;
24547;SDS011;12713;51.624;4.924;2022-12-18T17:16:30;36.35;;;20.85;;